sensor_id;sensor_type;location;lat;lon;timestamp;P1;durP1;ratioP1;P2;durP2;ratioP2
34060;SDS011;20336;-33.424;-70.638;2023-04-24T00:01:05;16.90;;;9.32;;
34060;SDS011;20336;-33.424;-70.638;2023-04-24T00:03:32;15.45;;;9.95;;
34060;SDS011;20336;-33.424;-70.638;2023-04-24T00:05:59;18.40;;;10.00;;
34060;SDS011;20336;-33.424;-70.638;2023-04-24T00:08:27;16.27;;;9.95;;
34060;SDS011;20336;-33.424;-70.638;2023-04-24T00:10:54;17.08;;;8.65;;
34060;SDS011;20336;-33.424;-70.638;2023-04-24T00:13:21;19.95;;;9.20;;
34060;SDS011;20336;-33.424;-70.638;2023-04-24T00:15:48;21.30;;;9.45;;
34060;SDS011;20336;-33.424;-70.638;2023-04-24T00:18:15;18.58;;;9.73;;
34060;SDS011;20336;-33.424;-70.638;2023-04-24T00:20:42;15.73;;;10.07;;
34060;SDS011;20336;-33.424;-70.638;2023-04-24T00:23:09;17.35;;;9.50;;
34060;SDS011;20336;-33.424;-70.638;2023-04-24T00:25:36;16.25;;;9.23;;
34060;SDS011;20336;-33.424;-70.638;2023-04-24T00:28:03;19.83;;;8.63;;
34060;SDS011;20336;-33.424;-70.638;2023-04-24T00:30:30;13.40;;;8.73;;
34060;SDS011;20336;-33.424;-70.638;2023-04-24T00:32:57;13.63;;;8.75;;
34060;SDS011;20336;-33.424;-70.638;2023-04-24T00:35:23;18.30;;;9.13;;
34060;SDS011;20336;-33.424;-70.638;2023-04-24T00:37:50;14.77;;;8.75;;
34060;SDS011;20336;-33.424;-70.638;2023-04-24T00:40:17;16.85;;;9.63;;
34060;SDS011;20336;-33.424;-70.638;2023-04-24T00:42:44;16.10;;;8.93;;
34060;SDS011;20336;-33.424;-70.638;2023-04-24T00:45:12;17.30;;;8.95;;
34060;SDS011;20336;-33.424;-70.638;2023-04-24T00:47:38;14.82;;;8.65;;
34060;SDS011;20336;-33.424;-70.638;2023-04-24T00:50:06;16.77;;;9.98;;
34060;SDS011;20336;-33.424;-70.638;2023-04-24T00:52:32;17.05;;;9.65;;
34060;SDS011;20336;-33.424;-70.638;2023-04-24T00:54:59;13.10;;;8.07;;
34060;SDS011;20336;-33.424;-70.638;2023-04-24T00:57:26;17.45;;;9.30;;
34060;SDS011;20336;-33.424;-70.638;2023-04-24T00:59:53;15.98;;;10.18;;
34060;SDS011;20336;-33.424;-70.638;2023-04-24T01:02:23;19.73;;;9.13;;
34060;SDS011;20336;-33.424;-70.638;2023-04-24T01:04:51;16.48;;;8.10;;
34060;SDS011;20336;-33.424;-70.638;2023-04-24T01:07:19;17.98;;;9.63;;
34060;SDS011;20336;-33.424;-70.638;2023-04-24T01:09:46;17.20;;;8.45;;
34060;SDS011;20336;-33.424;-70.638;2023-04-24T01:12:16;20.42;;;9.35;;
34060;SDS011;20336;-33.424;-70.638;2023-04-24T01:14:43;11.52;;;7.63;;
34060;SDS011;20336;-33.424;-70.638;2023-04-24T01:17:10;13.05;;;9.15;;
34060;SDS011;20336;-33.424;-70.638;2023-04-24T01:19:37;16.40;;;8.10;;
34060;SDS011;20336;-33.424;-70.638;2023-04-24T01:22:11;13.35;;;8.13;;
34060;SDS011;20336;-33.424;-70.638;2023-04-24T01:24:39;15.25;;;7.55;;
34060;SDS011;20336;-33.424;-70.638;2023-04-24T01:27:06;13.68;;;7.53;;
34060;SDS011;20336;-33.424;-70.638;2023-04-24T01:29:34;14.90;;;7.43;;
34060;SDS011;20336;-33.424;-70.638;2023-04-24T01:32:02;12.77;;;7.30;;
34060;SDS011;20336;-33.424;-70.638;2023-04-24T01:34:29;14.17;;;7.30;;
34060;SDS011;20336;-33.424;-70.638;2023-04-24T01:36:56;15.00;;;7.07;;
34060;SDS011;20336;-33.424;-70.638;2023-04-24T01:39:23;12.67;;;7.97;;
34060;SDS011;20336;-33.424;-70.638;2023-04-24T01:41:51;12.60;;;7.40;;
34060;SDS011;20336;-33.424;-70.638;2023-04-24T01:44:19;12.77;;;7.60;;
34060;SDS011;20336;-33.424;-70.638;2023-04-24T01:46:45;9.90;;;7.17;;
34060;SDS011;20336;-33.424;-70.638;2023-04-24T01:49:12;15.17;;;7.97;;
34060;SDS011;20336;-33.424;-70.638;2023-04-24T01:51:39;17.60;;;8.40;;
34060;SDS011;20336;-33.424;-70.638;2023-04-24T01:54:07;14.90;;;7.60;;
34060;SDS011;20336;-33.424;-70.638;2023-04-24T01:56:34;12.97;;;7.40;;
34060;SDS011;20336;-33.424;-70.638;2023-04-24T01:59:01;13.53;;;7.60;;
34060;SDS011;20336;-33.424;-70.638;2023-04-24T02:01:38;13.33;;;6.97;;
34060;SDS011;20336;-33.424;-70.638;2023-04-24T02:04:06;12.70;;;6.97;;
34060;SDS011;20336;-33.424;-70.638;2023-04-24T02:06:33;13.53;;;7.30;;
34060;SDS011;20336;-33.424;-70.638;2023-04-24T02:09:00;14.00;;;8.13;;
34060;SDS011;20336;-33.424;-70.638;2023-04-24T02:11:28;11.83;;;7.50;;
34060;SDS011;20336;-33.424;-70.638;2023-04-24T02:13:55;11.90;;;7.47;;
34060;SDS011;20336;-33.424;-70.638;2023-04-24T02:16:22;11.33;;;6.87;;
34060;SDS011;20336;-33.424;-70.638;2023-04-24T02:18:49;16.37;;;7.73;;
34060;SDS011;20336;-33.424;-70.638;2023-04-24T02:21:16;12.60;;;7.13;;
34060;SDS011;20336;-33.424;-70.638;2023-04-24T02:23:42;14.03;;;6.93;;
34060;SDS011;20336;-33.424;-70.638;2023-04-24T02:26:10;10.87;;;7.00;;
34060;SDS011;20336;-33.424;-70.638;2023-04-24T02:28:37;12.27;;;6.40;;
34060;SDS011;20336;-33.424;-70.638;2023-04-24T02:31:03;12.03;;;7.37;;
34060;SDS011;20336;-33.424;-70.638;2023-04-24T02:33:31;14.77;;;7.27;;
34060;SDS011;20336;-33.424;-70.638;2023-04-24T02:35:58;14.07;;;8.13;;
34060;SDS011;20336;-33.424;-70.638;2023-04-24T02:38:25;15.13;;;7.63;;
34060;SDS011;20336;-33.424;-70.638;2023-04-24T02:40:52;13.57;;;7.37;;
34060;SDS011;20336;-33.424;-70.638;2023-04-24T02:43:19;13.33;;;7.17;;
34060;SDS011;20336;-33.424;-70.638;2023-04-24T02:45:45;13.53;;;7.50;;
34060;SDS011;20336;-33.424;-70.638;2023-04-24T02:48:12;12.83;;;8.00;;
34060;SDS011;20336;-33.424;-70.638;2023-04-24T02:50:39;13.27;;;7.20;;
34060;SDS011;20336;-33.424;-70.638;2023-04-24T02:53:06;14.77;;;8.27;;
34060;SDS011;20336;-33.424;-70.638;2023-04-24T02:55:33;15.90;;;8.20;;
34060;SDS011;20336;-33.424;-70.638;2023-04-24T02:58:01;16.47;;;9.03;;
34060;SDS011;20336;-33.424;-70.638;2023-04-24T03:00:28;14.17;;;8.00;;
34060;SDS011;20336;-33.424;-70.638;2023-04-24T03:02:55;18.93;;;8.53;;
34060;SDS011;20336;-33.424;-70.638;2023-04-24T03:05:22;12.00;;;7.73;;
34060;SDS011;20336;-33.424;-70.638;2023-04-24T03:07:49;14.73;;;8.50;;
34060;SDS011;20336;-33.424;-70.638;2023-04-24T03:10:18;15.13;;;8.63;;
34060;SDS011;20336;-33.424;-70.638;2023-04-24T03:12:45;14.73;;;8.10;;
34060;SDS011;20336;-33.424;-70.638;2023-04-24T03:15:12;16.73;;;9.23;;
34060;SDS011;20336;-33.424;-70.638;2023-04-24T03:17:38;14.70;;;8.47;;
34060;SDS011;20336;-33.424;-70.638;2023-04-24T03:20:06;11.83;;;8.13;;
34060;SDS011;20336;-33.424;-70.638;2023-04-24T03:22:33;17.97;;;8.53;;
34060;SDS011;20336;-33.424;-70.638;2023-04-24T03:25:01;11.80;;;7.63;;
34060;SDS011;20336;-33.424;-70.638;2023-04-24T03:27:28;14.83;;;8.60;;
34060;SDS011;20336;-33.424;-70.638;2023-04-24T03:29:56;15.07;;;8.90;;
34060;SDS011;20336;-33.424;-70.638;2023-04-24T03:32:22;12.87;;;8.33;;
34060;SDS011;20336;-33.424;-70.638;2023-04-24T03:34:50;14.33;;;8.53;;
34060;SDS011;20336;-33.424;-70.638;2023-04-24T03:37:17;20.53;;;9.30;;
34060;SDS011;20336;-33.424;-70.638;2023-04-24T03:39:43;18.53;;;9.53;;
34060;SDS011;20336;-33.424;-70.638;2023-04-24T03:42:10;17.47;;;8.73;;
34060;SDS011;20336;-33.424;-70.638;2023-04-24T03:44:37;15.47;;;8.60;;
34060;SDS011;20336;-33.424;-70.638;2023-04-24T03:47:04;18.57;;;10.60;;
34060;SDS011;20336;-33.424;-70.638;2023-04-24T03:49:31;15.47;;;9.97;;
34060;SDS011;20336;-33.424;-70.638;2023-04-24T03:51:58;15.43;;;9.53;;
34060;SDS011;20336;-33.424;-70.638;2023-04-24T03:54:25;20.80;;;12.90;;
34060;SDS011;20336;-33.424;-70.638;2023-04-24T03:56:52;24.03;;;11.67;;
34060;SDS011;20336;-33.424;-70.638;2023-04-24T03:59:19;18.60;;;11.40;;
34060;SDS011;20336;-33.424;-70.638;2023-04-24T04:01:46;17.73;;;10.60;;
34060;SDS011;20336;-33.424;-70.638;2023-04-24T04:04:13;18.90;;;10.80;;
34060;SDS011;20336;-33.424;-70.638;2023-04-24T04:06:40;22.93;;;12.37;;
34060;SDS011;20336;-33.424;-70.638;2023-04-24T04:09:07;26.70;;;11.80;;
34060;SDS011;20336;-33.424;-70.638;2023-04-24T04:11:34;15.17;;;10.40;;
34060;SDS011;20336;-33.424;-70.638;2023-04-24T04:14:01;18.83;;;10.00;;
34060;SDS011;20336;-33.424;-70.638;2023-04-24T04:16:28;15.70;;;9.73;;
34060;SDS011;20336;-33.424;-70.638;2023-04-24T04:18:55;20.27;;;10.13;;
34060;SDS011;20336;-33.424;-70.638;2023-04-24T04:21:22;15.47;;;9.60;;
34060;SDS011;20336;-33.424;-70.638;2023-04-24T04:23:52;23.27;;;12.50;;
34060;SDS011;20336;-33.424;-70.638;2023-04-24T04:26:19;21.37;;;11.13;;
34060;SDS011;20336;-33.424;-70.638;2023-04-24T04:28:46;20.23;;;11.17;;
34060;SDS011;20336;-33.424;-70.638;2023-04-24T04:31:14;21.13;;;11.50;;
34060;SDS011;20336;-33.424;-70.638;2023-04-24T04:33:41;28.83;;;14.57;;
34060;SDS011;20336;-33.424;-70.638;2023-04-24T04:36:08;18.67;;;12.03;;
34060;SDS011;20336;-33.424;-70.638;2023-04-24T04:38:35;24.03;;;12.17;;
34060;SDS011;20336;-33.424;-70.638;2023-04-24T04:41:02;20.57;;;12.57;;
34060;SDS011;20336;-33.424;-70.638;2023-04-24T04:43:29;20.47;;;13.23;;
34060;SDS011;20336;-33.424;-70.638;2023-04-24T04:45:58;19.87;;;12.63;;
34060;SDS011;20336;-33.424;-70.638;2023-04-24T04:48:26;27.40;;;12.53;;
34060;SDS011;20336;-33.424;-70.638;2023-04-24T04:50:54;21.30;;;12.63;;
34060;SDS011;20336;-33.424;-70.638;2023-04-24T04:53:20;22.77;;;12.13;;
34060;SDS011;20336;-33.424;-70.638;2023-04-24T04:55:47;20.10;;;11.23;;
34060;SDS011;20336;-33.424;-70.638;2023-04-24T04:58:14;18.90;;;11.50;;
34060;SDS011;20336;-33.424;-70.638;2023-04-24T05:00:41;20.70;;;11.93;;
34060;SDS011;20336;-33.424;-70.638;2023-04-24T05:03:08;20.63;;;12.37;;
34060;SDS011;20336;-33.424;-70.638;2023-04-24T05:05:35;18.70;;;11.90;;
34060;SDS011;20336;-33.424;-70.638;2023-04-24T05:08:08;21.10;;;11.33;;
34060;SDS011;20336;-33.424;-70.638;2023-04-24T05:10:35;22.17;;;12.30;;
34060;SDS011;20336;-33.424;-70.638;2023-04-24T05:13:02;21.80;;;12.67;;
34060;SDS011;20336;-33.424;-70.638;2023-04-24T05:15:30;21.97;;;12.70;;
34060;SDS011;20336;-33.424;-70.638;2023-04-24T05:17:57;22.50;;;11.97;;
34060;SDS011;20336;-33.424;-70.638;2023-04-24T05:20:24;24.63;;;12.70;;
34060;SDS011;20336;-33.424;-70.638;2023-04-24T05:22:51;19.53;;;11.47;;
34060;SDS011;20336;-33.424;-70.638;2023-04-24T05:25:18;20.87;;;12.50;;
34060;SDS011;20336;-33.424;-70.638;2023-04-24T05:27:45;20.17;;;11.93;;
34060;SDS011;20336;-33.424;-70.638;2023-04-24T05:30:12;20.87;;;13.20;;
34060;SDS011;20336;-33.424;-70.638;2023-04-24T05:32:39;21.67;;;12.70;;
34060;SDS011;20336;-33.424;-70.638;2023-04-24T05:35:06;22.47;;;11.70;;
34060;SDS011;20336;-33.424;-70.638;2023-04-24T05:37:33;22.97;;;13.17;;
34060;SDS011;20336;-33.424;-70.638;2023-04-24T05:40:00;21.30;;;12.67;;
34060;SDS011;20336;-33.424;-70.638;2023-04-24T05:42:27;18.47;;;12.10;;
34060;SDS011;20336;-33.424;-70.638;2023-04-24T05:44:54;18.77;;;11.53;;
34060;SDS011;20336;-33.424;-70.638;2023-04-24T05:47:21;19.10;;;11.37;;
34060;SDS011;20336;-33.424;-70.638;2023-04-24T05:49:48;23.03;;;12.67;;
34060;SDS011;20336;-33.424;-70.638;2023-04-24T05:52:15;21.77;;;13.37;;
34060;SDS011;20336;-33.424;-70.638;2023-04-24T05:54:41;20.23;;;13.00;;
34060;SDS011;20336;-33.424;-70.638;2023-04-24T05:57:08;27.33;;;13.07;;
34060;SDS011;20336;-33.424;-70.638;2023-04-24T05:59:36;22.47;;;13.57;;
34060;SDS011;20336;-33.424;-70.638;2023-04-24T06:02:04;21.97;;;13.23;;
34060;SDS011;20336;-33.424;-70.638;2023-04-24T06:04:31;24.40;;;13.37;;
34060;SDS011;20336;-33.424;-70.638;2023-04-24T06:06:58;24.00;;;14.87;;
34060;SDS011;20336;-33.424;-70.638;2023-04-24T06:09:25;24.97;;;14.83;;
34060;SDS011;20336;-33.424;-70.638;2023-04-24T06:11:52;26.23;;;15.17;;
34060;SDS011;20336;-33.424;-70.638;2023-04-24T06:14:20;23.90;;;13.47;;
34060;SDS011;20336;-33.424;-70.638;2023-04-24T06:16:47;26.53;;;14.80;;
34060;SDS011;20336;-33.424;-70.638;2023-04-24T06:19:13;23.63;;;14.73;;
34060;SDS011;20336;-33.424;-70.638;2023-04-24T06:21:40;25.23;;;13.40;;
34060;SDS011;20336;-33.424;-70.638;2023-04-24T06:24:07;23.03;;;13.73;;
34060;SDS011;20336;-33.424;-70.638;2023-04-24T06:26:35;20.73;;;12.80;;
34060;SDS011;20336;-33.424;-70.638;2023-04-24T06:29:05;20.93;;;13.10;;
34060;SDS011;20336;-33.424;-70.638;2023-04-24T06:31:32;20.47;;;13.40;;
34060;SDS011;20336;-33.424;-70.638;2023-04-24T06:34:02;23.30;;;13.63;;
34060;SDS011;20336;-33.424;-70.638;2023-04-24T06:36:29;29.97;;;15.00;;
34060;SDS011;20336;-33.424;-70.638;2023-04-24T06:38:56;24.23;;;14.20;;
34060;SDS011;20336;-33.424;-70.638;2023-04-24T06:41:23;30.17;;;16.00;;
34060;SDS011;20336;-33.424;-70.638;2023-04-24T06:43:50;26.70;;;14.67;;
34060;SDS011;20336;-33.424;-70.638;2023-04-24T06:46:17;23.83;;;15.10;;
34060;SDS011;20336;-33.424;-70.638;2023-04-24T06:48:44;22.30;;;14.10;;
34060;SDS011;20336;-33.424;-70.638;2023-04-24T06:51:11;23.23;;;13.77;;
34060;SDS011;20336;-33.424;-70.638;2023-04-24T06:53:38;22.93;;;14.07;;
34060;SDS011;20336;-33.424;-70.638;2023-04-24T06:56:04;22.80;;;13.60;;
34060;SDS011;20336;-33.424;-70.638;2023-04-24T06:58:31;23.23;;;13.20;;
34060;SDS011;20336;-33.424;-70.638;2023-04-24T07:00:58;26.00;;;14.70;;
34060;SDS011;20336;-33.424;-70.638;2023-04-24T07:03:25;27.43;;;14.70;;
34060;SDS011;20336;-33.424;-70.638;2023-04-24T07:05:52;22.53;;;12.80;;
34060;SDS011;20336;-33.424;-70.638;2023-04-24T07:08:19;26.17;;;13.60;;
34060;SDS011;20336;-33.424;-70.638;2023-04-24T07:10:48;23.23;;;14.27;;
34060;SDS011;20336;-33.424;-70.638;2023-04-24T07:13:16;22.43;;;13.50;;
34060;SDS011;20336;-33.424;-70.638;2023-04-24T07:15:43;22.10;;;13.60;;
34060;SDS011;20336;-33.424;-70.638;2023-04-24T07:18:10;22.83;;;13.20;;
34060;SDS011;20336;-33.424;-70.638;2023-04-24T07:20:37;24.07;;;13.17;;
34060;SDS011;20336;-33.424;-70.638;2023-04-24T07:23:04;21.83;;;13.57;;
34060;SDS011;20336;-33.424;-70.638;2023-04-24T07:25:30;25.17;;;15.40;;
34060;SDS011;20336;-33.424;-70.638;2023-04-24T07:27:57;25.83;;;15.40;;
34060;SDS011;20336;-33.424;-70.638;2023-04-24T07:30:24;23.03;;;14.03;;
34060;SDS011;20336;-33.424;-70.638;2023-04-24T07:32:51;21.83;;;13.47;;
34060;SDS011;20336;-33.424;-70.638;2023-04-24T07:35:18;23.23;;;14.00;;
34060;SDS011;20336;-33.424;-70.638;2023-04-24T07:37:45;22.20;;;13.53;;
34060;SDS011;20336;-33.424;-70.638;2023-04-24T07:40:15;25.83;;;13.90;;
34060;SDS011;20336;-33.424;-70.638;2023-04-24T07:42:42;22.20;;;13.30;;
34060;SDS011;20336;-33.424;-70.638;2023-04-24T07:45:09;26.70;;;13.47;;
34060;SDS011;20336;-33.424;-70.638;2023-04-24T07:47:36;24.60;;;13.83;;
34060;SDS011;20336;-33.424;-70.638;2023-04-24T07:50:05;21.07;;;12.73;;
34060;SDS011;20336;-33.424;-70.638;2023-04-24T07:52:32;23.87;;;12.87;;
34060;SDS011;20336;-33.424;-70.638;2023-04-24T07:54:58;18.63;;;11.27;;
34060;SDS011;20336;-33.424;-70.638;2023-04-24T07:57:27;23.13;;;12.60;;
34060;SDS011;20336;-33.424;-70.638;2023-04-24T07:59:54;23.00;;;12.37;;
34060;SDS011;20336;-33.424;-70.638;2023-04-24T08:02:21;31.73;;;13.27;;
34060;SDS011;20336;-33.424;-70.638;2023-04-24T08:04:52;22.10;;;12.80;;
34060;SDS011;20336;-33.424;-70.638;2023-04-24T08:07:22;22.27;;;12.40;;
34060;SDS011;20336;-33.424;-70.638;2023-04-24T08:09:49;17.43;;;11.73;;
34060;SDS011;20336;-33.424;-70.638;2023-04-24T08:12:16;20.70;;;12.43;;
34060;SDS011;20336;-33.424;-70.638;2023-04-24T08:14:43;26.23;;;14.10;;
34060;SDS011;20336;-33.424;-70.638;2023-04-24T08:17:10;23.57;;;13.67;;
34060;SDS011;20336;-33.424;-70.638;2023-04-24T08:19:37;23.30;;;13.17;;
34060;SDS011;20336;-33.424;-70.638;2023-04-24T08:22:04;24.13;;;13.60;;
34060;SDS011;20336;-33.424;-70.638;2023-04-24T08:24:31;23.27;;;13.53;;
34060;SDS011;20336;-33.424;-70.638;2023-04-24T08:26:58;27.40;;;13.37;;
34060;SDS011;20336;-33.424;-70.638;2023-04-24T08:29:26;19.67;;;12.43;;
34060;SDS011;20336;-33.424;-70.638;2023-04-24T08:31:53;27.10;;;14.83;;
34060;SDS011;20336;-33.424;-70.638;2023-04-24T08:34:20;26.33;;;13.90;;
34060;SDS011;20336;-33.424;-70.638;2023-04-24T08:36:47;18.63;;;11.70;;
34060;SDS011;20336;-33.424;-70.638;2023-04-24T08:39:14;22.60;;;14.27;;
34060;SDS011;20336;-33.424;-70.638;2023-04-24T08:41:42;25.40;;;14.27;;
34060;SDS011;20336;-33.424;-70.638;2023-04-24T08:44:11;25.00;;;13.23;;
34060;SDS011;20336;-33.424;-70.638;2023-04-24T08:46:42;25.53;;;14.60;;
34060;SDS011;20336;-33.424;-70.638;2023-04-24T08:49:15;20.47;;;13.50;;
34060;SDS011;20336;-33.424;-70.638;2023-04-24T08:51:42;20.73;;;13.60;;
34060;SDS011;20336;-33.424;-70.638;2023-04-24T08:54:11;27.80;;;14.10;;
34060;SDS011;20336;-33.424;-70.638;2023-04-24T08:56:38;26.00;;;14.63;;
34060;SDS011;20336;-33.424;-70.638;2023-04-24T08:59:06;21.30;;;14.40;;
34060;SDS011;20336;-33.424;-70.638;2023-04-24T09:01:34;27.20;;;14.77;;
34060;SDS011;20336;-33.424;-70.638;2023-04-24T09:04:02;22.10;;;13.90;;
34060;SDS011;20336;-33.424;-70.638;2023-04-24T09:06:30;21.90;;;13.77;;
34060;SDS011;20336;-33.424;-70.638;2023-04-24T09:08:59;26.73;;;14.73;;
34060;SDS011;20336;-33.424;-70.638;2023-04-24T09:11:27;24.87;;;14.07;;
34060;SDS011;20336;-33.424;-70.638;2023-04-24T09:13:54;22.90;;;13.70;;
34060;SDS011;20336;-33.424;-70.638;2023-04-24T09:16:21;23.53;;;15.40;;
34060;SDS011;20336;-33.424;-70.638;2023-04-24T09:18:49;24.77;;;15.00;;
34060;SDS011;20336;-33.424;-70.638;2023-04-24T09:21:16;20.83;;;12.83;;
34060;SDS011;20336;-33.424;-70.638;2023-04-24T09:23:43;26.40;;;14.17;;
34060;SDS011;20336;-33.424;-70.638;2023-04-24T09:26:10;24.23;;;14.90;;
34060;SDS011;20336;-33.424;-70.638;2023-04-24T09:28:40;24.80;;;14.20;;
34060;SDS011;20336;-33.424;-70.638;2023-04-24T09:31:09;25.43;;;14.30;;
34060;SDS011;20336;-33.424;-70.638;2023-04-24T09:33:36;22.47;;;13.63;;
34060;SDS011;20336;-33.424;-70.638;2023-04-24T09:36:03;24.27;;;14.53;;
34060;SDS011;20336;-33.424;-70.638;2023-04-24T09:38:32;32.00;;;16.97;;
34060;SDS011;20336;-33.424;-70.638;2023-04-24T09:41:00;39.00;;;21.87;;
34060;SDS011;20336;-33.424;-70.638;2023-04-24T09:43:28;36.40;;;20.97;;
34060;SDS011;20336;-33.424;-70.638;2023-04-24T09:45:56;32.50;;;18.27;;
34060;SDS011;20336;-33.424;-70.638;2023-04-24T09:48:33;32.27;;;17.77;;
34060;SDS011;20336;-33.424;-70.638;2023-04-24T09:51:01;27.93;;;17.13;;
34060;SDS011;20336;-33.424;-70.638;2023-04-24T09:53:29;27.77;;;17.03;;
34060;SDS011;20336;-33.424;-70.638;2023-04-24T09:56:00;30.37;;;19.40;;
34060;SDS011;20336;-33.424;-70.638;2023-04-24T09:58:28;33.97;;;20.23;;
34060;SDS011;20336;-33.424;-70.638;2023-04-24T10:00:55;31.23;;;17.53;;
34060;SDS011;20336;-33.424;-70.638;2023-04-24T10:03:26;28.67;;;17.63;;
34060;SDS011;20336;-33.424;-70.638;2023-04-24T10:05:59;34.53;;;20.27;;
34060;SDS011;20336;-33.424;-70.638;2023-04-24T10:08:26;29.20;;;18.47;;
34060;SDS011;20336;-33.424;-70.638;2023-04-24T10:11:00;39.13;;;21.33;;
34060;SDS011;20336;-33.424;-70.638;2023-04-24T10:13:27;30.80;;;18.57;;
34060;SDS011;20336;-33.424;-70.638;2023-04-24T10:16:07;31.77;;;19.33;;
34060;SDS011;20336;-33.424;-70.638;2023-04-24T10:18:34;34.73;;;19.77;;
34060;SDS011;20336;-33.424;-70.638;2023-04-24T10:21:01;34.30;;;20.17;;
34060;SDS011;20336;-33.424;-70.638;2023-04-24T10:23:28;35.03;;;19.50;;
34060;SDS011;20336;-33.424;-70.638;2023-04-24T10:25:56;34.10;;;20.37;;
34060;SDS011;20336;-33.424;-70.638;2023-04-24T10:28:23;34.83;;;21.10;;
34060;SDS011;20336;-33.424;-70.638;2023-04-24T10:30:51;38.13;;;21.50;;
34060;SDS011;20336;-33.424;-70.638;2023-04-24T10:33:20;53.20;;;22.67;;
34060;SDS011;20336;-33.424;-70.638;2023-04-24T10:35:48;44.10;;;21.17;;
34060;SDS011;20336;-33.424;-70.638;2023-04-24T10:38:18;37.50;;;21.87;;
34060;SDS011;20336;-33.424;-70.638;2023-04-24T10:40:50;47.77;;;23.23;;
34060;SDS011;20336;-33.424;-70.638;2023-04-24T10:43:17;43.10;;;23.17;;
34060;SDS011;20336;-33.424;-70.638;2023-04-24T10:46:01;36.63;;;21.83;;
34060;SDS011;20336;-33.424;-70.638;2023-04-24T10:48:28;40.30;;;23.17;;
34060;SDS011;20336;-33.424;-70.638;2023-04-24T10:50:55;39.10;;;22.53;;
34060;SDS011;20336;-33.424;-70.638;2023-04-24T10:53:23;38.33;;;21.30;;
34060;SDS011;20336;-33.424;-70.638;2023-04-24T10:58:22;37.80;;;21.23;;
34060;SDS011;20336;-33.424;-70.638;2023-04-24T11:00:58;40.93;;;22.40;;
34060;SDS011;20336;-33.424;-70.638;2023-04-24T11:03:27;37.93;;;22.00;;
34060;SDS011;20336;-33.424;-70.638;2023-04-24T11:08:42;30.83;;;19.90;;
34060;SDS011;20336;-33.424;-70.638;2023-04-24T11:11:10;36.23;;;21.53;;
34060;SDS011;20336;-33.424;-70.638;2023-04-24T11:16:27;36.13;;;21.97;;
34060;SDS011;20336;-33.424;-70.638;2023-04-24T11:21:40;34.37;;;21.33;;
34060;SDS011;20336;-33.424;-70.638;2023-04-24T11:26:57;34.50;;;21.10;;
34060;SDS011;20336;-33.424;-70.638;2023-04-24T11:30:25;36.00;;;21.20;;
34060;SDS011;20336;-33.424;-70.638;2023-04-24T11:35:01;36.97;;;21.10;;
34060;SDS011;20336;-33.424;-70.638;2023-04-24T11:37:34;42.03;;;23.50;;
34060;SDS011;20336;-33.424;-70.638;2023-04-24T11:40:01;33.03;;;21.47;;
34060;SDS011;20336;-33.424;-70.638;2023-04-24T11:42:33;34.07;;;21.23;;
34060;SDS011;20336;-33.424;-70.638;2023-04-24T11:45:00;35.10;;;21.67;;
34060;SDS011;20336;-33.424;-70.638;2023-04-24T11:47:30;43.97;;;23.03;;
34060;SDS011;20336;-33.424;-70.638;2023-04-24T11:49:59;39.40;;;21.90;;
34060;SDS011;20336;-33.424;-70.638;2023-04-24T11:52:26;39.37;;;23.10;;
34060;SDS011;20336;-33.424;-70.638;2023-04-24T11:54:53;41.13;;;22.90;;
34060;SDS011;20336;-33.424;-70.638;2023-04-24T11:57:21;35.77;;;21.77;;
34060;SDS011;20336;-33.424;-70.638;2023-04-24T11:59:48;38.73;;;22.77;;
34060;SDS011;20336;-33.424;-70.638;2023-04-24T12:02:22;40.03;;;21.80;;
34060;SDS011;20336;-33.424;-70.638;2023-04-24T12:04:49;36.37;;;21.90;;
34060;SDS011;20336;-33.424;-70.638;2023-04-24T12:07:16;36.03;;;22.60;;
34060;SDS011;20336;-33.424;-70.638;2023-04-24T12:09:47;36.07;;;22.40;;
34060;SDS011;20336;-33.424;-70.638;2023-04-24T12:12:15;39.77;;;23.57;;
34060;SDS011;20336;-33.424;-70.638;2023-04-24T12:14:49;38.43;;;23.17;;
34060;SDS011;20336;-33.424;-70.638;2023-04-24T12:17:16;38.37;;;23.83;;
34060;SDS011;20336;-33.424;-70.638;2023-04-24T12:19:47;42.73;;;22.83;;
34060;SDS011;20336;-33.424;-70.638;2023-04-24T12:22:14;40.27;;;22.80;;
34060;SDS011;20336;-33.424;-70.638;2023-04-24T12:25:02;40.80;;;22.27;;
34060;SDS011;20336;-33.424;-70.638;2023-04-24T12:27:33;40.50;;;22.03;;
34060;SDS011;20336;-33.424;-70.638;2023-04-24T12:30:02;45.47;;;23.40;;
34060;SDS011;20336;-33.424;-70.638;2023-04-24T12:32:29;42.20;;;23.50;;
34060;SDS011;20336;-33.424;-70.638;2023-04-24T12:34:57;38.60;;;22.70;;
34060;SDS011;20336;-33.424;-70.638;2023-04-24T12:37:24;47.23;;;23.33;;
34060;SDS011;20336;-33.424;-70.638;2023-04-24T12:40:05;45.57;;;22.63;;
34060;SDS011;20336;-33.424;-70.638;2023-04-24T12:42:32;41.63;;;22.43;;
34060;SDS011;20336;-33.424;-70.638;2023-04-24T12:45:01;49.27;;;25.90;;
34060;SDS011;20336;-33.424;-70.638;2023-04-24T12:47:29;49.17;;;25.03;;
34060;SDS011;20336;-33.424;-70.638;2023-04-24T12:49:57;42.33;;;24.00;;
34060;SDS011;20336;-33.424;-70.638;2023-04-24T12:52:24;42.43;;;23.57;;
34060;SDS011;20336;-33.424;-70.638;2023-04-24T12:54:55;49.93;;;24.83;;
34060;SDS011;20336;-33.424;-70.638;2023-04-24T12:57:28;45.17;;;24.40;;
34060;SDS011;20336;-33.424;-70.638;2023-04-24T12:59:56;47.63;;;24.97;;
34060;SDS011;20336;-33.424;-70.638;2023-04-24T13:02:23;48.77;;;24.50;;
34060;SDS011;20336;-33.424;-70.638;2023-04-24T13:04:50;44.83;;;23.97;;
34060;SDS011;20336;-33.424;-70.638;2023-04-24T13:07:17;49.67;;;26.43;;
34060;SDS011;20336;-33.424;-70.638;2023-04-24T13:09:44;46.10;;;26.00;;
34060;SDS011;20336;-33.424;-70.638;2023-04-24T13:12:11;42.83;;;25.27;;
34060;SDS011;20336;-33.424;-70.638;2023-04-24T13:14:38;43.50;;;25.03;;
34060;SDS011;20336;-33.424;-70.638;2023-04-24T13:17:05;56.13;;;24.33;;
34060;SDS011;20336;-33.424;-70.638;2023-04-24T13:19:36;53.70;;;24.93;;
34060;SDS011;20336;-33.424;-70.638;2023-04-24T13:22:03;44.13;;;25.87;;
34060;SDS011;20336;-33.424;-70.638;2023-04-24T13:24:31;46.73;;;25.80;;
34060;SDS011;20336;-33.424;-70.638;2023-04-24T13:26:58;47.70;;;26.23;;
34060;SDS011;20336;-33.424;-70.638;2023-04-24T13:29:26;45.30;;;25.87;;
34060;SDS011;20336;-33.424;-70.638;2023-04-24T13:31:53;48.50;;;26.37;;
34060;SDS011;20336;-33.424;-70.638;2023-04-24T13:34:21;61.00;;;25.50;;
34060;SDS011;20336;-33.424;-70.638;2023-04-24T13:36:48;44.87;;;27.03;;
34060;SDS011;20336;-33.424;-70.638;2023-04-24T13:39:15;52.30;;;26.67;;
34060;SDS011;20336;-33.424;-70.638;2023-04-24T13:41:42;48.90;;;28.13;;
34060;SDS011;20336;-33.424;-70.638;2023-04-24T13:44:10;51.50;;;26.57;;
34060;SDS011;20336;-33.424;-70.638;2023-04-24T13:46:36;52.50;;;28.87;;
34060;SDS011;20336;-33.424;-70.638;2023-04-24T13:49:03;49.17;;;29.60;;
34060;SDS011;20336;-33.424;-70.638;2023-04-24T13:51:30;51.17;;;30.17;;
34060;SDS011;20336;-33.424;-70.638;2023-04-24T13:53:57;55.40;;;30.67;;
34060;SDS011;20336;-33.424;-70.638;2023-04-24T13:56:25;46.43;;;28.80;;
34060;SDS011;20336;-33.424;-70.638;2023-04-24T13:58:52;51.53;;;29.53;;
34060;SDS011;20336;-33.424;-70.638;2023-04-24T14:01:22;52.90;;;29.63;;
34060;SDS011;20336;-33.424;-70.638;2023-04-24T14:03:52;57.05;;;29.92;;
34060;SDS011;20336;-33.424;-70.638;2023-04-24T14:06:19;55.75;;;32.38;;
34060;SDS011;20336;-33.424;-70.638;2023-04-24T14:08:47;55.80;;;30.83;;